Time;durP1;ratioP1;P1;durP2;ratioP2;P2;SDS_P1;SDS_P2;PMS_P1;PMS_P2;Temp;Humidity;BMP_temperature;BMP_pressure;BME280_temperature;BME280_humidity;BME280_pressure;Samples;Min_cycle;Max_cycle;Signal;HPM_P1;HPM_P2
2021/12/28 00:01:55;;;;;;;100.97;43.23;;;;;;;10.55;68.94;99425.63;5202008;28;20513;-43
2021/12/28 00:04:28;;;;;;;96.50;41.53;;;;;;;10.56;68.96;99421.97;5196780;28;20417;-44
2021/12/28 00:07:00;;;;;;;97.88;42.90;;;;;;;10.57;69.13;99420.97;5196907;28;20498;-44
2021/12/28 00:09:32;;;;;;;89.97;44.33;;;;;;;10.57;68.84;99419.16;5206477;28;20773;-44
2021/12/28 00:12:08;;;;;;;98.97;41.55;;;;;;;10.54;68.96;99411.59;5211203;28;20931;-43
2021/12/28 00:14:49;;;;;;;106.63;40.75;;;;;;;10.63;68.98;99422.06;5206419;28;20849;-43
2021/12/28 00:20:22;;;;;;;89.68;38.65;;;;;;;10.64;69.00;99418.41;5205750;28;20414;-45
2021/12/28 00:22:55;;;;;;;85.88;36.22;;;;;;;10.66;69.00;99421.69;5196675;28;20436;-48
2021/12/28 00:25:28;;;;;;;87.23;36.80;;;;;;;10.66;68.89;99421.69;5197911;28;20506;-45
2021/12/28 00:28:02;;;;;;;81.22;34.42;;;;;;;10.69;68.91;99426.63;5205012;28;20900;-44
2021/12/28 00:30:35;;;;;;;76.53;31.67;;;;;;;10.69;69.02;99416.06;5197162;28;20452;-45
2021/12/28 00:33:08;;;;;;;81.22;32.50;;;;;;;10.58;68.91;99393.56;5198855;28;20428;-47
2021/12/28 00:35:43;;;;;;;65.28;31.63;;;;;;;10.70;69.00;99412.41;5200177;28;20420;-44
2021/12/28 00:38:20;;;;;;;63.53;29.38;;;;;;;10.68;69.11;99419.69;5203774;28;20409;-43
2021/12/28 00:40:55;;;;;;;55.33;28.95;;;;;;;10.65;69.03;99406.84;5199773;28;20820;-45
2021/12/28 00:43:31;;;;;;;62.03;30.00;;;;;;;10.64;69.20;99408.66;5194094;28;20415;-46
2021/12/28 00:46:05;;;;;;;54.75;27.73;;;;;;;10.59;69.17;99392.56;5194423;28;20431;-44
2021/12/28 00:48:38;;;;;;;64.35;27.42;;;;;;;10.56;69.24;99401.69;5196013;28;20418;-45
2021/12/28 00:51:11;;;;;;;58.55;27.25;;;;;;;10.53;69.31;99399.41;5202834;28;20405;-44
2021/12/28 00:53:43;;;;;;;47.50;24.92;;;;;;;10.50;69.34;99396.31;5195551;28;20440;-43
2021/12/28 00:56:16;;;;;;;50.38;25.70;;;;;;;10.18;69.34;99358.72;5192252;28;20897;-45
2021/12/28 00:58:50;;;;;;;60.03;25.67;;;;;;;10.44;69.44;99403.16;5195174;28;20821;-43
2021/12/28 01:01:22;;;;;;;48.20;23.85;;;;;;;10.35;69.44;99386.59;5195908;28;21216;-44
2021/12/28 01:03:54;;;;;;;56.35;23.85;;;;;;;10.39;69.33;99395.78;5193787;28;20903;-51
2021/12/28 01:06:27;;;;;;;45.35;20.15;;;;;;;10.37;69.55;99392.53;5195125;28;20864;-45
2021/12/28 01:08:59;;;;;;;41.53;20.10;;;;;;;10.32;69.58;99396.72;5198622;28;20911;-44
2021/12/28 01:11:32;;;;;;;44.55;19.77;;;;;;;10.36;69.45;99400.59;5193696;28;20952;-47
2021/12/28 01:14:06;;;;;;;49.63;20.42;;;;;;;10.36;69.59;99395.34;5195079;28;20427;-44
2021/12/28 01:16:38;;;;;;;51.40;20.80;;;;;;;10.38;69.50;99404.72;5199253;28;20426;-45
2021/12/28 01:19:10;;;;;;;50.40;20.08;;;;;;;10.37;69.65;99389.88;5197308;28;20419;-44
2021/12/28 01:21:43;;;;;;;50.22;18.75;;;;;;;10.39;69.67;99387.03;5194901;28;20505;-44
2021/12/28 01:24:16;;;;;;;49.40;17.42;;;;;;;10.36;69.49;99384.78;5194913;28;20410;-44
2021/12/28 01:26:49;;;;;;;42.90;17.47;;;;;;;10.34;69.58;99377.06;5193744;28;20497;-47
2021/12/28 01:29:23;;;;;;;37.50;17.02;;;;;;;10.09;69.48;99331.63;5194684;28;20719;-44
2021/12/28 01:31:55;;;;;;;47.08;17.95;;;;;;;10.39;69.56;99385.22;5189891;28;21597;-47
2021/12/28 01:34:28;;;;;;;44.93;15.13;;;;;;;10.39;69.57;99379.13;5195767;28;21253;-44
2021/12/28 01:37:00;;;;;;;33.10;15.77;;;;;;;10.40;69.54;99380.75;5195443;28;20417;-45
2021/12/28 01:39:33;;;;;;;32.60;13.10;;;;;;;10.35;69.53;99367.31;5201165;28;20439;-46
2021/12/28 01:42:07;;;;;;;42.38;15.40;;;;;;;10.32;69.52;99367.69;5197637;28;20433;-44
2021/12/28 01:44:40;;;;;;;44.83;15.80;;;;;;;10.38;69.46;99372.22;5201734;28;20429;-45
2021/12/28 01:47:16;;;;;;;38.65;14.07;;;;;;;10.31;69.49;99379.22;5194160;28;20443;-43
2021/12/28 01:49:48;;;;;;;44.47;14.02;;;;;;;10.30;69.57;99377.59;5201796;28;20501;-44
2021/12/28 01:52:20;;;;;;;40.33;13.95;;;;;;;10.28;69.54;99372.50;5202015;28;20412;-46
2021/12/28 01:54:53;;;;;;;43.25;14.65;;;;;;;10.27;69.52;99375.31;5197319;28;20410;-44
2021/12/28 01:57:25;;;;;;;44.00;15.07;;;;;;;10.26;69.32;99379.78;5196246;28;20401;-48
2021/12/28 01:59:59;;;;;;;52.42;14.13;;;;;;;10.23;69.33;99384.59;5194368;28;20403;-46
2021/12/28 02:02:31;;;;;;;48.47;14.52;;;;;;;10.21;69.38;99384.75;5200462;28;20764;-46
2021/12/28 02:05:04;;;;;;;52.10;15.38;;;;;;;10.23;69.22;99379.31;5199913;28;20496;-43
2021/12/28 02:07:37;;;;;;;42.90;12.75;;;;;;;10.19;69.18;99378.00;5201716;28;20417;-44
2021/12/28 02:10:10;;;;;;;48.67;14.10;;;;;;;10.12;69.29;99368.19;5201996;28;20414;-44
2021/12/28 02:12:43;;;;;;;51.17;14.23;;;;;;;10.20;69.28;99377.03;5205057;28;20425;-44
2021/12/28 02:15:19;;;;;;;44.77;13.60;;;;;;;10.22;69.29;99370.56;5204553;28;21097;-44
2021/12/28 02:17:52;;;;;;;50.47;14.15;;;;;;;10.18;69.42;99377.19;5201171;28;20413;-44
2021/12/28 02:20:26;;;;;;;42.75;13.18;;;;;;;10.21;69.11;99368.09;5197117;28;20431;-52
2021/12/28 02:22:58;;;;;;;41.38;13.30;;;;;;;10.10;69.31;99349.13;5197479;28;20417;-44
2021/12/28 02:25:31;;;;;;;44.72;12.88;;;;;;;9.94;69.22;99322.94;5200362;28;20500;-45
2021/12/28 02:28:08;;;;;;;45.00;11.25;;;;;;;9.83;69.04;99315.47;5203149;28;20418;-44
2021/12/28 02:30:44;;;;;;;46.90;13.13;;;;;;;10.15;69.17;99354.63;5197329;28;20423;-43
2021/12/28 02:33:17;;;;;;;44.45;13.18;;;;;;;10.16;69.11;99360.75;5201835;28;20774;-43
2021/12/28 02:35:52;;;;;;;42.72;12.25;;;;;;;10.16;69.12;99351.03;5198115;28;20713;-45
2021/12/28 02:38:25;;;;;;;51.70;12.75;;;;;;;10.17;69.25;99343.91;5198777;28;20407;-41
2021/12/28 02:40:58;;;;;;;41.42;12.80;;;;;;;10.19;69.12;99335.81;5198952;28;20753;-44
2021/12/28 02:43:31;;;;;;;34.60;11.10;;;;;;;10.10;69.13;99325.38;5204296;28;20818;-43
2021/12/28 02:46:06;;;;;;;45.50;11.82;;;;;;;10.21;69.14;99344.38;5198086;28;20508;-44
2021/12/28 02:48:41;;;;;;;51.42;11.88;;;;;;;10.23;69.16;99347.66;5196751;28;20421;-44
2021/12/28 02:51:17;;;;;;;41.75;11.43;;;;;;;9.90;68.95;99296.09;5200743;28;20462;-44
2021/12/28 02:53:50;;;;;;;48.22;11.73;;;;;;;10.24;68.95;99333.44;5202303;28;20808;-44
2021/12/28 02:56:23;;;;;;;49.47;11.45;;;;;;;10.24;69.05;99344.00;5206597;28;20419;-45
2021/12/28 02:58:55;;;;;;;45.42;10.65;;;;;;;10.23;69.12;99340.53;5202452;28;20436;-51
2021/12/28 03:01:30;;;;;;;50.15;12.68;;;;;;;10.25;68.83;99330.63;5197573;28;20416;-45
2021/12/28 03:04:07;;;;;;;52.55;11.27;;;;;;;10.27;68.87;99327.81;5201294;28;20421;-45
2021/12/28 03:06:41;;;;;;;43.13;12.27;;;;;;;10.27;68.84;99327.81;5198914;28;20415;-44
2021/12/28 03:09:15;;;;;;;40.25;11.57;;;;;;;10.30;68.86;99335.38;5199156;28;20796;-46
2021/12/28 03:11:48;;;;;;;40.63;10.63;;;;;;;10.29;68.81;99336.38;5195409;28;20418;-46
2021/12/28 03:14:20;;;;;;;57.25;13.07;;;;;;;10.31;68.82;99329.09;5198513;28;20502;-45
2021/12/28 03:16:52;;;;;;;50.60;11.33;;;;;;;10.35;68.77;99333.00;5199463;28;20561;-45
2021/12/28 03:19:25;;;;;;;49.38;11.80;;;;;;;10.31;68.75;99319.38;5192195;28;20429;-52
2021/12/28 03:22:00;;;;;;;36.08;9.73;;;;;;;10.30;69.10;99324.81;5197387;28;20431;-47
2021/12/28 03:24:34;;;;;;;43.05;11.80;;;;;;;10.29;68.86;99318.72;5200939;28;20466;-45
2021/12/28 03:27:07;;;;;;;47.83;11.10;;;;;;;10.27;68.79;99320.72;5196062;28;20407;-45
2021/12/28 03:29:40;;;;;;;42.05;10.77;;;;;;;10.21;68.89;99318.78;5195958;28;20425;-45
2021/12/28 03:32:12;;;;;;;42.92;10.32;;;;;;;10.21;68.96;99310.88;5196105;28;20423;-45
2021/12/28 03:34:45;;;;;;;37.58;10.40;;;;;;;10.22;69.14;99309.91;5197553;28;20884;-46
2021/12/28 03:37:18;;;;;;;46.88;11.25;;;;;;;10.23;68.92;99308.06;5205215;28;20410;-44
2021/12/28 03:39:51;;;;;;;46.33;10.98;;;;;;;10.23;68.90;99310.72;5205585;28;20425;-47
2021/12/28 03:42:23;;;;;;;42.15;11.18;;;;;;;10.23;68.92;99300.16;5197880;28;20418;-46
2021/12/28 03:44:56;;;;;;;32.65;9.38;;;;;;;10.24;68.88;99299.16;5199407;28;20903;-45
2021/12/28 03:47:28;;;;;;;50.50;11.52;;;;;;;10.24;68.83;99286.75;5202180;28;20957;-54
2021/12/28 03:50:01;;;;;;;33.67;9.23;;;;;;;10.26;68.88;99289.22;5200159;28;20461;-45
2021/12/28 03:52:35;;;;;;;38.85;10.88;;;;;;;10.22;68.79;99280.88;5194183;28;20423;-44
2021/12/28 03:55:09;;;;;;;44.58;10.32;;;;;;;10.26;68.83;99283.94;5199013;28;20475;-47
2021/12/28 03:57:42;;;;;;;48.65;12.02;;;;;;;9.99;68.78;99225.59;5205282;28;20452;-45
2021/12/28 04:00:18;;;;;;;43.88;12.00;;;;;;;10.24;68.56;99270.13;5195206;28;24588;-44
2021/12/28 04:02:50;;;;;;;45.70;10.20;;;;;;;10.30;68.72;99259.66;5200962;28;21037;-43
2021/12/28 04:05:24;;;;;;;47.53;11.35;;;;;;;10.33;68.59;99258.47;5204827;28;20512;-45
2021/12/28 04:07:57;;;;;;;38.75;9.85;;;;;;;10.31;68.79;99257.84;5194777;28;20412;-44
2021/12/28 04:10:32;;;;;;;37.47;10.35;;;;;;;10.29;68.74;99252.75;5195564;28;20407;-44
2021/12/28 04:13:05;;;;;;;35.67;11.27;;;;;;;10.30;68.76;99259.66;5199711;28;20499;-44
2021/12/28 04:15:38;;;;;;;41.80;9.95;;;;;;;10.31;68.73;99255.19;5200856;28;20427;-46
2021/12/28 04:18:10;;;;;;;33.43;9.67;;;;;;;10.06;68.73;99218.56;5197101;28;20433;-44
2021/12/28 04:20:43;;;;;;;44.78;10.73;;;;;;;10.32;68.61;99262.13;5200170;28;20424;-44
2021/12/28 04:23:17;;;;;;;44.08;11.23;;;;;;;10.36;68.63;99258.09;5198191;28;20969;-45
2021/12/28 04:25:50;;;;;;;37.75;9.30;;;;;;;10.36;68.55;99258.09;5201296;28;20405;-47
2021/12/28 04:28:22;;;;;;;42.13;10.13;;;;;;;10.38;68.60;99249.00;5193591;28;20423;-44
2021/12/28 04:30:55;;;;;;;34.83;9.30;;;;;;;10.41;68.63;99245.19;5197025;28;20425;-43
2021/12/28 04:33:27;;;;;;;36.78;9.93;;;;;;;10.41;68.64;99239.09;5194995;28;20399;-45
2021/12/28 04:35:59;;;;;;;45.85;10.20;;;;;;;10.38;68.65;99230.53;5196703;28;20401;-44
2021/12/28 04:38:33;;;;;;;33.42;8.07;;;;;;;10.36;68.64;99231.72;5196704;28;20413;-46
2021/12/28 04:41:06;;;;;;;34.22;8.60;;;;;;;10.36;68.47;99226.44;5195268;28;20966;-45
2021/12/28 04:43:40;;;;;;;39.92;9.45;;;;;;;10.36;68.55;99227.25;5196433;28;20814;-45
2021/12/28 04:46:12;;;;;;;41.88;9.85;;;;;;;10.38;68.70;99216.53;5198692;28;20878;-45
2021/12/28 04:48:44;;;;;;;30.80;8.50;;;;;;;10.38;68.51;99224.44;5191510;28;20393;-46
2021/12/28 04:51:17;;;;;;;41.55;10.65;;;;;;;10.39;68.54;99215.50;5199821;28;20415;-46
2021/12/28 04:53:53;;;;;;;38.47;10.05;;;;;;;10.38;68.49;99216.53;5203243;28;20471;-44
2021/12/28 04:56:25;;;;;;;36.33;10.13;;;;;;;10.39;68.53;99215.50;5194138;28;20502;-51
2021/12/28 04:58:58;;;;;;;43.53;9.85;;;;;;;10.36;68.55;99205.31;5196742;28;20403;-45
2021/12/28 05:01:30;;;;;;;30.13;8.68;;;;;;;10.40;68.42;99211.84;5199300;28;20754;-45
2021/12/28 05:04:02;;;;;;;33.72;9.73;;;;;;;10.40;68.50;99206.56;5197075;28;20501;-47
2021/12/28 05:06:37;;;;;;;33.42;9.15;;;;;;;10.42;68.53;99203.75;5198868;28;20777;-44
2021/12/28 05:09:15;;;;;;;38.15;9.52;;;;;;;10.41;68.40;99197.66;5201539;28;20785;-45
2021/12/28 05:11:50;;;;;;;36.03;9.05;;;;;;;10.22;68.38;99156.03;5196786;28;20420;-44
2021/12/28 05:14:22;;;;;;;32.83;9.25;;;;;;;10.47;68.36;99194.28;5195678;28;20428;-44
2021/12/28 05:16:57;;;;;;;40.92;10.13;;;;;;;10.46;68.51;99189.97;5192613;28;20503;-43
2021/12/28 05:19:29;;;;;;;39.20;9.43;;;;;;;10.48;68.41;99181.91;5206578;28;20390;-44
2021/12/28 05:22:01;;;;;;;35.95;10.27;;;;;;;10.49;68.54;99178.25;5194833;28;20413;-46
2021/12/28 05:24:35;;;;;;;37.05;9.80;;;;;;;10.48;68.44;99174.78;5204625;28;20905;-45
2021/12/28 05:27:08;;;;;;;38.95;10.13;;;;;;;10.51;68.45;99171.78;5200457;28;20424;-45
2021/12/28 05:29:40;;;;;;;35.47;8.70;;;;;;;10.53;68.34;99169.75;5196645;28;20536;-44
2021/12/28 05:32:13;;;;;;;35.65;9.70;;;;;;;10.53;68.45;99175.03;5197842;28;20494;-45
2021/12/28 05:34:46;;;;;;;29.98;8.35;;;;;;;10.52;68.43;99173.38;5198137;28;20756;-45
2021/12/28 05:37:18;;;;;;;28.02;8.85;;;;;;;10.54;68.46;99173.22;5198026;28;20420;-44
2021/12/28 05:39:52;;;;;;;36.75;8.23;;;;;;;10.55;68.36;99173.00;5202767;28;20760;-44
2021/12/28 05:42:24;;;;;;;33.70;8.50;;;;;;;10.56;68.37;99169.38;5203520;28;20517;-45
2021/12/28 05:44:56;;;;;;;28.45;7.63;;;;;;;10.56;68.29;99169.38;5190152;28;20411;-46
2021/12/28 05:47:29;;;;;;;37.38;8.25;;;;;;;10.56;68.42;99161.47;5197008;28;20503;-44
2021/12/28 05:50:01;;;;;;;28.15;7.28;;;;;;;10.57;68.32;99155.16;5201886;28;20838;-45
2021/12/28 05:52:34;;;;;;;28.33;6.82;;;;;;;10.59;68.40;99158.44;5198932;28;20423;-44
2021/12/28 05:55:09;;;;;;;45.22;9.27;;;;;;;10.60;68.31;99151.34;5198128;28;20424;-44
2021/12/28 05:57:42;;;;;;;41.58;8.45;;;;;;;10.59;68.25;99149.69;5196210;28;20444;-45
2021/12/28 06:00:16;;;;;;;28.40;7.85;;;;;;;10.51;68.35;99134.00;5196865;28;23473;-45
2021/12/28 06:02:48;;;;;;;27.05;7.93;;;;;;;10.54;68.26;99128.34;5196783;28;20401;-45
2021/12/28 06:05:21;;;;;;;38.78;8.68;;;;;;;10.58;68.32;99135.69;5201131;28;20414;-44
2021/12/28 06:07:53;;;;;;;29.98;7.78;;;;;;;10.59;68.25;99129.41;5198888;28;20399;-45
2021/12/28 06:10:27;;;;;;;40.22;10.05;;;;;;;10.60;68.31;99127.59;5192189;28;20849;-54
2021/12/28 06:12:59;;;;;;;28.45;8.52;;;;;;;10.63;68.26;99126.38;5198082;28;20426;-44
2021/12/28 06:16:03;;;;;;;38.38;10.82;;;;;;;10.64;68.24;99135.94;5199330;28;20748;-45
2021/12/28 06:18:35;;;;;;;28.45;8.20;;;;;;;10.64;68.15;99136.75;5199212;28;20425;-45
2021/12/28 06:21:07;;;;;;;38.83;10.05;;;;;;;10.63;68.13;99140.41;5190834;28;20779;-44
2021/12/28 06:23:40;;;;;;;28.37;9.27;;;;;;;10.66;68.19;99147.13;5204858;28;20421;-43
2021/12/28 06:26:13;;;;;;;35.75;9.77;;;;;;;10.67;68.13;99130.25;5200382;28;20918;-45
2021/12/28 06:28:46;;;;;;;34.72;10.23;;;;;;;10.69;68.17;99130.91;5202354;28;20419;-45
2021/12/28 06:31:18;;;;;;;33.85;8.65;;;;;;;10.70;68.09;99121.97;5201517;28;20454;-44
2021/12/28 06:33:51;;;;;;;35.20;10.17;;;;;;;10.70;68.09;99121.97;5202179;28;20411;-43
2021/12/28 06:36:23;;;;;;;36.75;9.35;;;;;;;10.72;68.10;99122.59;5207723;28;20407;-45
2021/12/28 06:38:56;;;;;;;28.33;9.85;;;;;;;10.73;68.15;99126.84;5207014;28;20413;-41
2021/12/28 06:41:30;;;;;;;28.60;8.70;;;;;;;10.74;68.10;99123.19;5206145;28;20817;-44
2021/12/28 06:44:02;;;;;;;27.58;8.95;;;;;;;10.70;68.26;99112.22;5201646;28;20413;-45
2021/12/28 06:46:35;;;;;;;16.60;7.05;;;;;;;10.68;68.22;99119.50;5201200;28;20759;-43
2021/12/28 06:49:09;;;;;;;25.00;8.45;;;;;;;10.66;68.26;99110.16;5199785;28;20411;-44
2021/12/28 06:51:41;;;;;;;28.55;8.02;;;;;;;10.66;68.34;99099.59;5204500;28;20417;-44
2021/12/28 06:54:14;;;;;;;24.08;10.00;;;;;;;10.69;68.32;99093.94;5204539;28;20500;-44
2021/12/28 06:56:48;;;;;;;23.48;9.77;;;;;;;10.70;68.34;99095.56;5210844;28;20393;-44
2021/12/28 06:59:20;;;;;;;33.30;10.00;;;;;;;10.70;68.26;99091.09;5207537;28;20427;-44
2021/12/28 07:01:54;;;;;;;23.33;10.00;;;;;;;10.71;68.28;99103.28;5195701;28;20493;-45
2021/12/28 07:04:26;;;;;;;25.83;9.30;;;;;;;10.72;68.33;99088.28;5197564;28;20414;-46
2021/12/28 07:06:58;;;;;;;22.92;8.63;;;;;;;10.74;68.22;99099.44;5202216;28;20812;-44
2021/12/28 07:09:31;;;;;;;25.15;10.07;;;;;;;10.75;68.30;99087.88;5217121;28;20417;-44
2021/12/28 07:12:06;;;;;;;29.75;10.88;;;;;;;10.78;68.19;99083.03;5209792;28;20401;-44
2021/12/28 07:14:39;;;;;;;21.63;9.13;;;;;;;10.65;68.20;99061.00;5210683;28;20422;-45
2021/12/28 07:17:11;;;;;;;25.63;9.60;;;;;;;10.78;68.26;99087.50;5197100;28;20407;-44
2021/12/28 07:19:43;;;;;;;26.45;9.23;;;;;;;10.71;68.32;99081.34;5206225;28;20412;-43
2021/12/28 07:22:16;;;;;;;28.50;10.23;;;;;;;10.61;68.55;99061.38;5210909;28;20413;-44
2021/12/28 07:24:48;;;;;;;25.00;10.07;;;;;;;10.61;68.27;99071.94;5206454;28;20413;-45
2021/12/28 07:27:22;;;;;;;22.77;9.73;;;;;;;10.78;68.31;99071.66;5202100;28;20413;-45
2021/12/28 07:29:54;;;;;;;21.90;10.75;;;;;;;10.77;68.32;99070.00;5211110;28;20508;-43
2021/12/28 07:32:26;;;;;;;22.77;11.20;;;;;;;10.77;68.27;99080.56;5199039;28;20421;-48
2021/12/28 07:34:59;;;;;;;23.77;10.77;;;;;;;10.76;68.42;99079.75;5206187;28;20694;-45
2021/12/28 07:37:31;;;;;;;22.45;11.10;;;;;;;10.78;68.41;99080.38;5192889;28;20425;-44
2021/12/28 07:40:05;;;;;;;26.20;10.38;;;;;;;10.74;68.31;99065.09;5211467;28;20436;-43
2021/12/28 07:42:39;;;;;;;21.38;10.55;;;;;;;10.76;68.45;99071.03;5215566;28;20948;-45
2021/12/28 07:45:14;;;;;;;23.92;11.35;;;;;;;10.72;68.51;99064.50;5210729;28;20486;-46
2021/12/28 07:47:46;;;;;;;28.30;11.77;;;;;;;10.72;68.60;99059.22;5210805;28;20465;-45
2021/12/28 07:50:20;;;;;;;25.10;11.48;;;;;;;10.70;68.63;99053.31;5209387;28;20723;-44
2021/12/28 07:52:53;;;;;;;23.00;11.93;;;;;;;10.72;68.58;99062.69;5197137;28;20411;-45
2021/12/28 07:55:25;;;;;;;22.00;10.43;;;;;;;10.71;68.62;99053.09;5203596;28;20527;-42
2021/12/28 07:57:59;;;;;;;24.35;10.75;;;;;;;10.71;68.59;99055.75;5206293;28;20409;-47
2021/12/28 08:00:32;;;;;;;21.70;9.75;;;;;;;10.69;68.58;99044.59;5208243;28;20475;-45
2021/12/28 08:03:05;;;;;;;24.33;11.18;;;;;;;10.73;68.62;99048.47;5201235;28;20413;-44
2021/12/28 08:05:38;;;;;;;24.90;10.55;;;;;;;10.75;68.55;99050.91;5198273;28;20422;-45
2021/12/28 08:08:11;;;;;;;21.88;10.98;;;;;;;10.76;68.60;99044.63;5201567;28;20801;-45
2021/12/28 08:10:43;;;;;;;24.03;11.80;;;;;;;10.76;68.58;99041.97;5193441;28;20467;-44
2021/12/28 08:13:17;;;;;;;21.70;11.80;;;;;;;10.69;68.67;99036.66;5193612;28;20402;-45
2021/12/28 08:15:50;;;;;;;21.73;10.80;;;;;;;10.79;68.57;99044.22;5199707;28;20493;-44
2021/12/28 08:18:22;;;;;;;17.55;9.98;;;;;;;10.80;68.52;99035.28;5195294;28;20492;-45
2021/12/28 08:20:55;;;;;;;18.70;10.63;;;;;;;10.78;68.63;99032.84;5198943;28;20402;-44
2021/12/28 08:23:27;;;;;;;22.17;11.57;;;;;;;10.84;68.48;99036.53;5202507;28;20420;-50
2021/12/28 08:25:59;;;;;;;23.55;11.70;;;;;;;10.87;68.54;99033.50;5210590;28;20417;-44
2021/12/28 08:28:33;;;;;;;26.75;12.43;;;;;;;10.90;68.61;99032.28;5199104;28;20512;-45
2021/12/28 08:31:05;;;;;;;16.90;10.18;;;;;;;10.90;68.48;99025.19;5199931;28;20443;-45
2021/12/28 08:33:38;;;;;;;19.45;10.48;;;;;;;10.89;68.63;99026.19;5190872;28;20421;-44
2021/12/28 08:36:10;;;;;;;19.88;11.85;;;;;;;10.89;68.72;99022.75;5206812;28;20489;-43
2021/12/28 08:38:43;;;;;;;20.63;11.00;;;;;;;10.89;68.62;99031.47;5215435;28;20440;-44
2021/12/28 08:41:16;;;;;;;16.65;10.25;;;;;;;10.89;68.79;99026.19;5195523;28;20411;-43
2021/12/28 08:43:50;;;;;;;18.98;11.63;;;;;;;10.88;68.97;99019.28;5201710;28;20408;-47
2021/12/28 08:46:23;;;;;;;19.02;10.98;;;;;;;10.90;68.62;99013.78;5194374;28;20405;-45
2021/12/28 08:48:55;;;;;;;20.02;10.65;;;;;;;10.94;68.61;99012.41;5199021;28;20757;-44
2021/12/28 08:51:27;;;;;;;17.45;11.70;;;;;;;10.96;68.51;99015.66;5196930;28;20485;-49
2021/12/28 08:54:00;;;;;;;19.75;10.48;;;;;;;10.68;68.49;98962.91;5192263;28;20510;-45
2021/12/28 08:56:32;;;;;;;12.98;9.45;;;;;;;10.97;68.61;99007.53;5200317;28;20416;-45
2021/12/28 08:59:06;;;;;;;14.40;10.25;;;;;;;10.89;68.62;98998.97;5201253;28;20787;-44
2021/12/28 09:01:38;;;;;;;18.58;11.45;;;;;;;10.98;68.70;99003.88;5209994;28;20427;-43
2021/12/28 09:04:11;;;;;;;15.80;10.73;;;;;;;10.99;68.64;99005.50;5200164;28;20431;-44
2021/12/28 09:06:45;;;;;;;16.10;10.63;;;;;;;10.67;68.72;98942.81;5193797;28;20981;-44
2021/12/28 09:09:17;;;;;;;18.05;10.75;;;;;;;11.02;68.63;98991.91;5198314;28;20413;-44
2021/12/28 09:11:49;;;;;;;12.95;9.90;;;;;;;11.00;68.76;98991.31;5203962;28;20409;-46
2021/12/28 09:14:23;;;;;;;15.65;9.60;;;;;;;11.03;68.71;98987.44;5194463;28;20429;-44
2021/12/28 09:16:56;;;;;;;15.80;10.45;;;;;;;11.07;68.72;98978.91;5193008;28;20419;-50
2021/12/28 09:19:29;;;;;;;16.52;10.57;;;;;;;11.09;68.69;98978.75;5202114;28;20425;-44
2021/12/28 09:22:02;;;;;;;13.35;8.75;;;;;;;11.10;68.64;98974.25;5193284;28;20426;-44
2021/12/28 09:24:34;;;;;;;13.63;9.10;;;;;;;11.09;68.85;98973.47;5202205;28;20910;-43
2021/12/28 09:27:08;;;;;;;13.52;9.45;;;;;;;11.02;68.81;98965.47;5195914;28;20886;-45
2021/12/28 09:29:43;;;;;;;11.73;9.23;;;;;;;11.16;68.69;98966.34;5209508;28;20780;-44
2021/12/28 09:32:15;;;;;;;12.07;8.90;;;;;;;11.18;68.69;98964.34;5206304;28;20469;-43
2021/12/28 09:34:52;;;;;;;12.07;9.82;;;;;;;11.21;68.63;98971.03;5194209;28;21119;-44
2021/12/28 09:37:25;;;;;;;16.40;9.27;;;;;;;11.23;68.75;98969.00;5196883;28;20425;-43
2021/12/28 09:39:58;;;;;;;12.55;8.80;;;;;;;11.16;68.78;98949.69;5201283;28;20492;-52
2021/12/28 09:42:30;;;;;;;9.57;8.18;;;;;;;11.28;68.63;98966.59;5202170;28;20418;-43
2021/12/28 09:45:06;;;;;;;13.30;8.27;;;;;;;11.29;68.60;98962.91;5198992;28;20423;-44
2021/12/28 09:47:41;;;;;;;10.32;8.25;;;;;;;11.29;68.74;98955.00;5199729;28;20970;-45
2021/12/28 09:50:16;;;;;;;13.98;9.63;;;;;;;11.32;68.75;98947.47;5203133;28;20413;-46
2021/12/28 09:52:50;;;;;;;14.13;9.32;;;;;;;11.34;68.79;98955.22;5200986;28;20406;-44
2021/12/28 09:55:25;;;;;;;14.50;11.15;;;;;;;11.35;68.72;98946.25;5194925;28;20500;-44
2021/12/28 09:58:00;;;;;;;12.70;10.20;;;;;;;11.38;68.83;98951.16;5205665;28;20484;-46
2021/12/28 10:00:34;;;;;;;14.65;11.95;;;;;;;11.41;68.80;98939.38;5202830;28;20784;-45
2021/12/28 10:03:06;;;;;;;14.70;12.00;;;;;;;11.44;68.81;98929.19;5197531;28;20451;-46
2021/12/28 10:05:38;;;;;;;16.60;12.90;;;;;;;11.40;68.83;98929.81;5201283;28;20409;-46
2021/12/28 10:08:13;;;;;;;17.92;12.75;;;;;;;11.42;68.88;98925.94;5202662;28;20410;-44
2021/12/28 10:10:49;;;;;;;15.75;12.75;;;;;;;11.47;68.79;98934.09;5198038;28;22490;-45
2021/12/28 10:13:26;;;;;;;17.75;14.48;;;;;;;11.51;68.74;98923.91;5199983;28;20763;-46
2021/12/28 10:16:00;;;;;;;16.92;12.93;;;;;;;11.53;68.77;98916.59;5203165;28;20409;-45
2021/12/28 10:18:32;;;;;;;17.70;13.13;;;;;;;11.48;68.79;98906.63;5194759;28;20421;-45
2021/12/28 10:21:05;;;;;;;12.90;10.95;;;;;;;11.45;68.64;98893.81;5208710;28;20421;-44
2021/12/28 10:23:37;;;;;;;14.23;12.10;;;;;;;11.56;68.79;98904.81;5208799;28;20514;-45
2021/12/28 10:26:15;;;;;;;15.73;12.02;;;;;;;11.57;68.84;98901.16;5210777;28;20419;-44
2021/12/28 10:28:47;;;;;;;15.57;12.27;;;;;;;11.60;68.89;98906.03;5207300;28;20409;-44
2021/12/28 10:31:22;;;;;;;11.77;10.18;;;;;;;11.60;68.87;98887.53;5211766;28;20949;-44
2021/12/28 10:33:57;;;;;;;14.07;11.73;;;;;;;11.58;68.93;98881.59;5206628;28;20483;-44
2021/12/28 10:36:37;;;;;;;11.80;10.52;;;;;;;11.57;68.88;98880.81;5203418;28;20898;-45
2021/12/28 10:39:09;;;;;;;15.95;11.55;;;;;;;11.57;69.03;98880.00;5209167;28;20405;-44
2021/12/28 10:41:43;;;;;;;12.13;10.82;;;;;;;11.54;68.91;98865.34;5212517;28;20928;-44
2021/12/28 10:44:16;;;;;;;14.00;12.45;;;;;;;11.60;68.99;98858.44;5208542;28;20401;-44
2021/12/28 10:46:49;;;;;;;14.07;12.23;;;;;;;11.63;68.86;98865.97;5202765;28;20853;-43
2021/12/28 10:49:39;;;;;;;14.68;12.10;;;;;;;11.57;68.94;98835.84;5202557;28;20434;-46
2021/12/28 10:52:24;;;;;;;14.45;11.25;;;;;;;11.65;68.93;98845.44;5201628;28;20453;-45
2021/12/28 10:55:22;;;;;;;13.20;10.57;;;;;;;11.63;68.93;98836.88;5199206;28;20418;-48
2021/12/28 10:57:55;;;;;;;14.32;11.20;;;;;;;11.38;69.03;98808.44;5205525;28;20409;-44
2021/12/28 11:00:32;;;;;;;13.10;10.60;;;;;;;11.61;69.00;98841.53;5200480;28;20877;-44
2021/12/28 11:03:33;;;;;;;13.02;11.73;;;;;;;11.64;69.00;98831.38;5207530;28;20413;-46
2021/12/28 11:06:13;;;;;;;16.65;12.82;;;;;;;11.67;68.95;98838.09;5192698;28;20421;-45
2021/12/28 11:08:49;;;;;;;16.83;12.57;;;;;;;11.69;68.96;98833.41;5205404;28;22023;-44
2021/12/28 11:11:25;;;;;;;13.60;11.10;;;;;;;11.67;68.88;98819.56;5206631;28;20412;-44
2021/12/28 11:14:01;;;;;;;12.20;9.45;;;;;;;11.49;68.94;98791.16;5201116;28;20436;-45
2021/12/28 11:16:35;;;;;;;10.48;9.13;;;;;;;11.63;69.07;98810.44;5201193;28;20439;-43
2021/12/28 11:19:11;;;;;;;11.70;9.70;;;;;;;11.60;69.05;98811.66;5196699;28;20435;-46
2021/12/28 11:21:54;;;;;;;10.95;8.38;;;;;;;11.66;68.92;98815.31;5191234;28;20446;-44
2021/12/28 11:24:31;;;;;;;14.18;8.18;;;;;;;11.68;68.80;98814.09;5192555;28;20737;-48
2021/12/28 11:27:06;;;;;;;10.18;7.20;;;;;;;11.65;68.84;98806.56;5190004;28;20554;-44
2021/12/28 11:29:40;;;;;;;8.82;7.30;;;;;;;11.65;68.95;98811.06;5186906;28;20444;-44
2021/12/28 11:32:17;;;;;;;9.52;7.80;;;;;;;11.62;68.96;98806.97;5191496;28;20782;-44
2021/12/28 11:34:52;;;;;;;11.33;8.30;;;;;;;11.64;69.02;98804.13;5191906;28;20614;-43
2021/12/28 11:37:27;;;;;;;7.85;7.05;;;;;;;11.60;68.85;98797.63;5198155;28;20557;-44
2021/12/28 11:40:08;;;;;;;9.50;8.00;;;;;;;11.68;69.13;98792.13;5191256;28;20444;-44
2021/12/28 11:42:40;;;;;;;9.27;7.57;;;;;;;11.70;68.83;98800.66;5198103;28;20452;-44
2021/12/28 11:45:13;;;;;;;11.52;8.00;;;;;;;11.62;68.83;98777.09;5194935;28;20926;-44
2021/12/28 11:47:46;;;;;;;8.98;7.22;;;;;;;11.68;69.01;98792.13;5194251;28;21021;-47
2021/12/28 11:50:19;;;;;;;9.43;6.60;;;;;;;11.68;68.94;98792.13;5195449;28;20409;-46
2021/12/28 11:52:52;;;;;;;10.07;6.88;;;;;;;11.63;69.05;98782.16;5197297;28;20913;-45